createdAt,value
2023-01-30T00:01:35.124Z,33.53
2023-01-30T00:04:03.564Z,29.93
2023-01-30T00:06:31.828Z,28.40
2023-01-30T00:09:00.677Z,31.67
2023-01-30T00:11:30.210Z,28.73
2023-01-30T00:13:59.120Z,27.53
2023-01-30T00:16:27.488Z,28.37
2023-01-30T00:18:57.252Z,27.67
2023-01-30T00:21:25.629Z,29.93
2023-01-30T00:23:54.468Z,30.10
2023-01-30T00:26:26.405Z,29.37
2023-01-30T00:28:55.114Z,27.20
2023-01-30T00:31:24.375Z,31.87
2023-01-30T00:33:52.832Z,27.43
2023-01-30T00:36:25.824Z,28.40
2023-01-30T00:38:54.758Z,28.37
2023-01-30T00:41:23.261Z,28.00
2023-01-30T00:44:09.312Z,29.07
2023-01-30T00:46:58.372Z,28.67
2023-01-30T00:49:27.781Z,27.17
2023-01-30T00:51:57.468Z,27.80
2023-01-30T00:54:25.849Z,29.90
2023-01-30T00:56:54.213Z,28.40
2023-01-30T00:59:27.379Z,23.83
2023-01-30T01:01:56.053Z,25.80
2023-01-30T01:04:24.508Z,28.30
2023-01-30T01:06:53.085Z,30.87
2023-01-30T01:09:22.737Z,27.10
2023-01-30T01:11:50.990Z,28.83
2023-01-30T01:14:19.269Z,25.80
2023-01-30T01:16:48.558Z,27.33
2023-01-30T01:19:16.840Z,23.23
2023-01-30T01:21:45.365Z,25.93
2023-01-30T01:24:16.556Z,28.93
2023-01-30T01:26:46.825Z,28.17
2023-01-30T01:29:17.138Z,28.70
2023-01-30T01:31:46.061Z,27.57
2023-01-30T01:34:17.467Z,28.03
2023-01-30T01:36:54.293Z,24.87
2023-01-30T01:39:23.778Z,26.97
2023-01-30T01:41:52.618Z,28.03
2023-01-30T01:44:20.940Z,27.87
2023-01-30T01:46:55.943Z,26.57
2023-01-30T01:49:30.151Z,28.80
2023-01-30T01:52:05.315Z,32.73
2023-01-30T01:54:41.231Z,28.83
2023-01-30T01:57:19.613Z,31.13
2023-01-30T01:59:57.801Z,30.50
2023-01-30T02:02:27.317Z,32.57
2023-01-30T02:05:03.340Z,30.77
2023-01-30T02:07:39.220Z,32.97
2023-01-30T02:10:18.894Z,25.93
2023-01-30T02:12:52.843Z,30.67
2023-01-30T02:15:23.651Z,27.00
2023-01-30T02:17:52.017Z,27.77
2023-01-30T02:20:38.046Z,28.50
2023-01-30T02:24:01.060Z,26.23
2023-01-30T02:27:38.044Z,30.03
2023-01-30T02:30:46.054Z,29.33
2023-01-30T02:33:20.697Z,28.90
2023-01-30T02:36:04.859Z,26.37
2023-01-30T02:38:49.110Z,35.87
2023-01-30T02:41:30.340Z,33.70
2023-01-30T02:44:05.980Z,25.17
2023-01-30T02:46:47.752Z,28.10
2023-01-30T02:49:22.049Z,28.20
2023-01-30T02:51:53.614Z,28.60
2023-01-30T02:54:22.365Z,26.10
2023-01-30T02:56:54.739Z,27.27
2023-01-30T02:59:33.491Z,25.47
2023-01-30T03:02:50.793Z,24.70
2023-01-30T03:06:01.069Z,26.37
2023-01-30T03:08:41.777Z,26.30
2023-01-30T03:11:12.273Z,23.33
2023-01-30T03:13:56.785Z,27.03
2023-01-30T03:16:32.837Z,22.87
2023-01-30T03:19:04.711Z,24.67
2023-01-30T03:21:34.271Z,21.67
2023-01-30T03:24:02.989Z,24.30
2023-01-30T03:26:38.841Z,21.83
2023-01-30T03:29:11.269Z,22.97
2023-01-30T03:31:40.091Z,20.23
2023-01-30T03:34:13.796Z,24.30
2023-01-30T03:36:45.831Z,19.47
2023-01-30T03:39:15.045Z,21.40
2023-01-30T03:41:43.854Z,24.77
2023-01-30T03:44:12.273Z,21.27
2023-01-30T03:46:46.182Z,19.93
2023-01-30T03:49:15.944Z,14.57
2023-01-30T03:51:44.332Z,23.13
2023-01-30T03:54:12.918Z,21.13
2023-01-30T03:56:41.524Z,21.63
2023-01-30T03:59:10.552Z,19.03
2023-01-30T04:01:49.741Z,23.07
2023-01-30T04:04:19.539Z,16.33
2023-01-30T04:06:47.990Z,23.17
2023-01-30T04:09:16.767Z,17.50
2023-01-30T04:11:48.684Z,22.37
2023-01-30T04:14:18.334Z,20.23
2023-01-30T04:17:06.919Z,20.67
2023-01-30T04:19:59.693Z,22.47
2023-01-30T04:22:31.938Z,22.63
2023-01-30T04:25:00.385Z,21.37
2023-01-30T04:27:32.143Z,21.80
2023-01-30T04:30:24.161Z,23.93
2023-01-30T04:32:57.388Z,22.53
2023-01-30T04:35:27.166Z,17.90
2023-01-30T04:37:55.595Z,22.93
2023-01-30T04:40:23.981Z,25.43
2023-01-30T04:42:52.290Z,25.27
2023-01-30T04:45:39.255Z,25.30
2023-01-30T04:48:07.755Z,25.43
2023-01-30T04:50:38.136Z,21.73
2023-01-30T04:53:08.283Z,27.93
2023-01-30T04:55:36.924Z,26.80
2023-01-30T04:58:05.434Z,29.20
2023-01-30T05:00:34.161Z,32.33
2023-01-30T05:03:02.849Z,26.53
2023-01-30T05:05:31.619Z,25.00
2023-01-30T05:08:01.714Z,22.03
2023-01-30T05:10:30.206Z,21.83
2023-01-30T05:13:03.442Z,25.03
2023-01-30T05:15:32.439Z,23.73
2023-01-30T05:18:01.486Z,23.83
2023-01-30T05:20:29.837Z,28.33
2023-01-30T05:22:58.348Z,26.50
2023-01-30T05:25:28.117Z,26.77
2023-01-30T05:27:57.206Z,19.43
2023-01-30T05:30:25.686Z,27.83
2023-01-30T05:32:54.570Z,21.80
2023-01-30T05:35:22.865Z,11.70
2023-01-30T05:37:55.466Z,22.30
2023-01-30T05:40:24.104Z,27.43
2023-01-30T05:42:53.684Z,23.43
2023-01-30T05:45:22.861Z,27.27
2023-01-30T05:47:56.367Z,18.53
2023-01-30T05:50:26.997Z,24.77
2023-01-30T05:52:55.327Z,23.73
2023-01-30T05:55:24.216Z,21.23
2023-01-30T05:57:53.840Z,15.40
2023-01-30T06:00:23.375Z,25.20
2023-01-30T06:02:51.758Z,25.10
2023-01-30T06:05:20.280Z,31.03
2023-01-30T06:07:48.632Z,23.83
2023-01-30T06:10:17.675Z,25.50
2023-01-30T06:12:46.322Z,29.57
2023-01-30T06:15:16.573Z,25.93
2023-01-30T06:17:45.491Z,25.37
2023-01-30T06:20:14.527Z,31.07
2023-01-30T06:22:43.159Z,29.43
2023-01-30T06:25:12.377Z,26.53
2023-01-30T06:27:40.652Z,22.63
2023-01-30T06:30:10.989Z,22.37
2023-01-30T06:32:41.538Z,28.90
2023-01-30T06:35:10.837Z,27.77
2023-01-30T06:37:39.277Z,23.10
2023-01-30T06:40:09.063Z,28.03
2023-01-30T06:42:40.668Z,23.43
2023-01-30T06:45:10.828Z,26.97
2023-01-30T06:47:48.190Z,28.57
2023-01-30T06:50:19.019Z,24.17
2023-01-30T06:52:50.415Z,24.83
2023-01-30T06:55:22.158Z,27.67
2023-01-30T06:57:51.986Z,19.53
2023-01-30T07:00:21.889Z,23.87
2023-01-30T07:02:51.589Z,26.13
2023-01-30T07:05:20.511Z,27.13
2023-01-30T07:07:49.057Z,26.13
2023-01-30T07:10:18.230Z,25.07
2023-01-30T07:12:47.403Z,23.10
2023-01-30T07:15:16.490Z,21.27
2023-01-30T07:17:44.988Z,23.23
2023-01-30T07:20:15.175Z,8.90
2023-01-30T07:22:43.874Z,23.03
2023-01-30T07:25:12.322Z,21.00
2023-01-30T07:27:41.219Z,20.13
2023-01-30T07:30:11.333Z,21.93
2023-01-30T07:32:39.679Z,21.37
2023-01-30T07:35:08.892Z,19.70
2023-01-30T07:37:38.795Z,29.73
2023-01-30T07:40:10.399Z,22.87
2023-01-30T07:42:38.642Z,26.93
2023-01-30T07:45:08.576Z,23.23
2023-01-30T07:47:37.541Z,28.67
2023-01-30T07:50:07.632Z,26.00
2023-01-30T07:52:36.249Z,24.03
2023-01-30T07:55:06.907Z,26.73
2023-01-30T07:57:35.583Z,25.57
2023-01-30T08:00:05.896Z,26.23
2023-01-30T08:02:37.358Z,29.17
2023-01-30T08:05:07.081Z,22.57
2023-01-30T08:07:35.694Z,25.30
2023-01-30T08:10:06.143Z,24.63
2023-01-30T08:12:34.795Z,22.53
2023-01-30T08:15:03.678Z,22.20
2023-01-30T08:17:32.035Z,24.83
2023-01-30T08:20:00.374Z,28.17
2023-01-30T08:22:33.498Z,23.50
2023-01-30T08:25:02.088Z,18.00
2023-01-30T08:27:31.723Z,20.60
2023-01-30T08:30:00.311Z,19.60
2023-01-30T08:32:28.967Z,26.03
2023-01-30T08:34:57.293Z,15.10
2023-01-30T08:37:25.605Z,23.87
2023-01-30T08:39:54.423Z,22.93
2023-01-30T08:42:22.827Z,16.43
2023-01-30T08:44:55.802Z,21.90
2023-01-30T08:47:24.159Z,18.97
2023-01-30T08:49:54.347Z,23.50
2023-01-30T08:52:23.136Z,12.47
2023-01-30T08:54:51.422Z,23.40
2023-01-30T08:57:19.758Z,23.63
2023-01-30T08:59:48.065Z,20.97
2023-01-30T09:02:18.055Z,19.50
2023-01-30T09:04:47.268Z,23.53
2023-01-30T09:07:19.222Z,21.00
2023-01-30T09:09:48.640Z,10.17
2023-01-30T09:12:17.095Z,23.23
2023-01-30T09:14:45.407Z,21.13
2023-01-30T09:17:14.436Z,18.83
2023-01-30T09:19:44.112Z,19.40
2023-01-30T09:22:12.593Z,19.23
2023-01-30T09:24:41.011Z,12.17
2023-01-30T09:27:09.800Z,22.30
2023-01-30T09:29:38.668Z,16.83
2023-01-30T09:32:07.316Z,20.27
2023-01-30T09:34:35.668Z,19.37
2023-01-30T09:37:05.348Z,17.97
2023-01-30T09:39:33.721Z,17.73
2023-01-30T09:42:37.985Z,16.83
2023-01-30T09:45:49.443Z,16.93
2023-01-30T09:48:25.457Z,18.17
2023-01-30T09:51:32.529Z,15.53
2023-01-30T09:54:18.231Z,12.00
2023-01-30T09:56:47.187Z,11.50
2023-01-30T09:59:27.077Z,16.53
2023-01-30T10:02:06.601Z,14.23
2023-01-30T10:04:40.373Z,18.73
2023-01-30T10:07:24.508Z,14.73
2023-01-30T10:10:10.115Z,19.10
2023-01-30T10:12:56.422Z,16.60
2023-01-30T10:15:47.563Z,15.60
2023-01-30T10:18:55.056Z,20.40
2023-01-30T10:21:39.471Z,11.90
2023-01-30T10:24:35.745Z,11.47
2023-01-30T10:27:12.234Z,12.93
2023-01-30T10:29:45.773Z,15.70
2023-01-30T10:32:20.689Z,11.50
2023-01-30T10:34:55.091Z,20.40
2023-01-30T10:37:30.942Z,19.37
2023-01-30T10:40:14.115Z,14.53
2023-01-30T10:42:55.059Z,14.77
2023-01-30T10:45:36.504Z,18.63
2023-01-30T10:48:45.498Z,15.47
2023-01-30T10:51:29.583Z,12.03
2023-01-30T10:54:04.785Z,16.00
2023-01-30T10:56:45.118Z,14.70
2023-01-30T10:59:29.884Z,16.53
2023-01-30T11:02:12.556Z,12.67
2023-01-30T11:04:50.729Z,10.73
2023-01-30T11:07:19.486Z,13.13
2023-01-30T11:09:49.811Z,10.70
2023-01-30T11:12:18.202Z,16.20
2023-01-30T11:14:59.857Z,15.80
2023-01-30T11:17:36.404Z,15.33
2023-01-30T11:20:14.688Z,11.17
2023-01-30T11:22:54.694Z,15.87
2023-01-30T11:25:24.606Z,16.67
2023-01-30T11:28:01.827Z,11.70
2023-01-30T11:30:36.629Z,13.50
2023-01-30T11:33:15.122Z,10.17
2023-01-30T11:35:55.100Z,13.87
2023-01-30T11:38:27.333Z,14.43
2023-01-30T11:41:20.834Z,15.80
2023-01-30T11:43:49.835Z,14.67
2023-01-30T11:46:21.989Z,11.77
2023-01-30T11:49:02.551Z,18.20
2023-01-30T11:51:49.012Z,14.67
2023-01-30T11:54:29.160Z,14.87
2023-01-30T11:57:00.096Z,12.73
2023-01-30T11:59:36.929Z,15.40
2023-01-30T12:02:20.907Z,12.30
2023-01-30T12:04:54.071Z,11.23
2023-01-30T12:07:25.705Z,16.10
2023-01-30T12:09:55.324Z,19.40
2023-01-30T12:12:34.937Z,15.13
2023-01-30T12:15:20.049Z,16.33
2023-01-30T12:18:02.229Z,13.53
2023-01-30T12:20:47.837Z,11.87
2023-01-30T12:23:26.788Z,15.47
2023-01-30T12:26:06.373Z,14.43
2023-01-30T12:28:44.744Z,9.50
2023-01-30T12:31:20.261Z,14.63
2023-01-30T12:33:50.408Z,10.67
2023-01-30T12:36:34.792Z,13.07
2023-01-30T12:39:24.075Z,12.97
2023-01-30T12:42:29.881Z,15.07
2023-01-30T12:45:21.334Z,12.87
2023-01-30T12:48:14.989Z,10.03
2023-01-30T12:51:01.235Z,16.03
2023-01-30T12:53:44.390Z,9.17
2023-01-30T12:56:43.579Z,14.20
2023-01-30T12:59:22.520Z,14.80
2023-01-30T13:02:25.577Z,16.20
2023-01-30T13:05:21.325Z,16.87
2023-01-30T13:08:22.767Z,18.33
2023-01-30T13:11:05.037Z,13.53
2023-01-30T13:13:45.168Z,29.00
2023-01-30T13:16:28.596Z,13.23
2023-01-30T13:19:06.240Z,14.13
2023-01-30T13:21:45.049Z,15.83
2023-01-30T13:24:27.194Z,19.73
2023-01-30T13:27:00.452Z,20.40
2023-01-30T13:29:36.561Z,18.97
2023-01-30T13:32:12.933Z,21.60
2023-01-30T13:34:46.213Z,18.90
2023-01-30T13:37:16.855Z,15.97
2023-01-30T13:39:52.414Z,23.00
2023-01-30T13:42:33.736Z,17.47
2023-01-30T13:45:05.393Z,20.43
2023-01-30T13:47:53.377Z,21.03
2023-01-30T13:50:46.666Z,23.37
2023-01-30T13:53:28.053Z,22.33
2023-01-30T13:56:27.037Z,27.93
2023-01-30T13:59:08.743Z,22.47
2023-01-30T14:02:17.889Z,26.37
2023-01-30T14:04:52.362Z,22.03
2023-01-30T14:07:27.935Z,23.40
2023-01-30T14:10:20.442Z,26.90
2023-01-30T14:12:53.674Z,18.73
2023-01-30T14:15:31.839Z,24.00
2023-01-30T14:18:07.199Z,29.63
2023-01-30T14:20:38.019Z,23.03
2023-01-30T14:23:20.324Z,22.83
2023-01-30T14:25:52.144Z,24.13
2023-01-30T14:28:52.132Z,25.93
2023-01-30T14:31:54.566Z,25.27
2023-01-30T14:34:45.775Z,24.20
2023-01-30T14:38:10.909Z,19.10
2023-01-30T14:40:49.040Z,29.97
2023-01-30T14:44:03.882Z,20.90
2023-01-30T14:46:59.820Z,18.43
2023-01-30T14:49:34.371Z,20.47
2023-01-30T14:52:05.179Z,22.30
2023-01-30T14:54:44.135Z,22.57
2023-01-30T14:57:27.679Z,23.63
2023-01-30T15:00:17.094Z,19.23
2023-01-30T15:02:53.675Z,16.77
2023-01-30T15:05:31.958Z,23.53
2023-01-30T15:08:09.224Z,21.83
2023-01-30T15:11:19.098Z,28.77
2023-01-30T15:14:07.748Z,35.27
2023-01-30T15:17:08.009Z,27.80
2023-01-30T15:20:05.173Z,26.37
2023-01-30T15:22:55.570Z,23.10
2023-01-30T15:26:02.756Z,20.40
2023-01-30T15:28:44.376Z,19.80
2023-01-30T15:31:19.430Z,16.90
2023-01-30T15:33:51.709Z,16.37
2023-01-30T15:36:26.938Z,23.33
2023-01-30T15:39:03.636Z,20.97
2023-01-30T15:41:40.563Z,20.67
2023-01-30T15:44:40.586Z,15.23
2023-01-30T15:47:27.367Z,17.60
2023-01-30T15:50:03.314Z,20.60
2023-01-30T15:52:45.014Z,15.80
2023-01-30T15:55:21.366Z,18.67
2023-01-30T15:57:57.160Z,19.70
2023-01-30T16:00:33.105Z,17.73
2023-01-30T16:03:04.600Z,16.23
2023-01-30T16:05:34.334Z,15.07
2023-01-30T16:08:22.534Z,15.00
2023-01-30T16:10:51.763Z,15.30
2023-01-30T16:13:23.337Z,12.93
2023-01-30T16:15:58.997Z,10.20
2023-01-30T16:18:34.425Z,10.47
2023-01-30T16:21:08.575Z,10.07
2023-01-30T16:23:42.908Z,10.23
2023-01-30T16:26:18.053Z,7.90
2023-01-30T16:28:47.260Z,9.93
2023-01-30T16:31:16.514Z,7.17
2023-01-30T16:33:52.038Z,8.53
2023-01-30T16:36:50.572Z,8.83
2023-01-30T16:39:31.001Z,9.27
2023-01-30T16:42:02.289Z,6.67
2023-01-30T16:44:32.243Z,7.17
2023-01-30T16:47:06.402Z,8.43
2023-01-30T16:49:47.251Z,11.60
2023-01-30T16:52:23.927Z,6.53
2023-01-30T16:54:55.681Z,7.93
2023-01-30T16:57:36.317Z,7.77
2023-01-30T17:00:22.317Z,8.87
2023-01-30T17:02:56.086Z,8.20
2023-01-30T17:05:28.662Z,8.63
2023-01-30T17:08:00.581Z,9.63
2023-01-30T17:10:56.076Z,6.27
2023-01-30T17:13:38.822Z,8.47
2023-01-30T17:16:33.926Z,7.30
2023-01-30T17:19:06.886Z,10.00
2023-01-30T17:21:45.662Z,9.60
2023-01-30T17:24:19.708Z,8.27
2023-01-30T17:26:59.111Z,7.90
2023-01-30T17:29:41.981Z,14.47
2023-01-30T17:32:14.284Z,10.17
2023-01-30T17:34:43.593Z,10.73
2023-01-30T17:37:22.428Z,9.33
2023-01-30T17:39:52.127Z,8.57
2023-01-30T17:42:22.242Z,13.77
2023-01-30T17:44:51.176Z,7.27
2023-01-30T17:47:19.556Z,10.43
2023-01-30T17:49:48.484Z,7.43
2023-01-30T17:52:18.693Z,8.03
2023-01-30T17:54:48.501Z,9.17
2023-01-30T17:57:18.278Z,8.63
2023-01-30T17:59:46.948Z,12.47
2023-01-30T18:02:15.772Z,7.73
2023-01-30T18:04:44.054Z,9.73
2023-01-30T18:07:16.568Z,8.83
2023-01-30T18:09:45.147Z,9.77
2023-01-30T18:12:13.785Z,8.37
2023-01-30T18:14:43.404Z,8.23
2023-01-30T18:17:12.544Z,11.20
2023-01-30T18:19:41.199Z,9.87
2023-01-30T18:22:09.480Z,11.10
2023-01-30T18:24:37.851Z,9.20
2023-01-30T18:27:06.561Z,9.93
2023-01-30T18:29:34.855Z,9.90
2023-01-30T18:32:05.877Z,9.20
2023-01-30T18:34:35.318Z,8.97
2023-01-30T18:37:03.590Z,14.70
2023-01-30T18:39:32.956Z,11.07
2023-01-30T18:42:02.104Z,10.87
2023-01-30T18:44:30.703Z,7.20
2023-01-30T18:46:59.224Z,11.57
2023-01-30T18:49:29.045Z,8.03
2023-01-30T18:51:57.472Z,8.17
2023-01-30T18:54:26.193Z,9.17
2023-01-30T18:56:54.481Z,11.73
2023-01-30T18:59:23.119Z,8.83
2023-01-30T19:01:51.459Z,12.70
2023-01-30T19:04:20.106Z,10.83
2023-01-30T19:06:49.909Z,11.87
2023-01-30T19:09:19.380Z,8.60
2023-01-30T19:12:05.294Z,11.33
2023-01-30T19:14:33.679Z,9.40
2023-01-30T19:17:02.075Z,9.47
2023-01-30T19:19:30.527Z,12.67
2023-01-30T19:22:00.216Z,9.63
2023-01-30T19:24:28.985Z,9.20
2023-01-30T19:26:57.601Z,12.33
2023-01-30T19:29:25.912Z,10.70
2023-01-30T19:31:54.350Z,13.70
2023-01-30T19:34:23.050Z,10.10
2023-01-30T19:36:51.348Z,11.77
2023-01-30T19:39:21.374Z,11.67
2023-01-30T19:41:49.776Z,13.93
2023-01-30T19:44:18.750Z,11.87
2023-01-30T19:46:47.324Z,13.20
2023-01-30T19:49:16.088Z,13.10
2023-01-30T19:51:44.833Z,10.90
2023-01-30T19:54:13.741Z,11.13
2023-01-30T19:56:47.459Z,12.60
2023-01-30T19:59:16.644Z,12.03
2023-01-30T20:01:45.005Z,10.30
2023-01-30T20:04:14.025Z,16.10
2023-01-30T20:06:46.033Z,15.00
2023-01-30T20:09:16.453Z,13.60
2023-01-30T20:11:46.285Z,13.87
2023-01-30T20:14:14.737Z,13.53
2023-01-30T20:16:43.435Z,10.47
2023-01-30T20:19:16.776Z,10.73
2023-01-30T20:21:45.927Z,14.27
2023-01-30T20:24:15.827Z,11.13
2023-01-30T20:26:48.265Z,12.07
2023-01-30T20:29:17.985Z,15.20
2023-01-30T20:31:47.154Z,12.93
2023-01-30T20:34:16.581Z,14.03
2023-01-30T20:36:45.705Z,11.60
2023-01-30T20:39:16.868Z,12.43
2023-01-30T20:41:46.995Z,12.67
2023-01-30T20:44:16.230Z,15.50
2023-01-30T20:46:46.800Z,13.10
2023-01-30T20:49:18.598Z,16.87
2023-01-30T20:51:47.879Z,13.30
2023-01-30T20:54:17.876Z,14.43
2023-01-30T20:56:50.679Z,14.73
2023-01-30T20:59:24.050Z,17.13
2023-01-30T21:01:53.265Z,12.17
2023-01-30T21:04:24.255Z,15.27
2023-01-30T21:06:53.036Z,14.53
2023-01-30T21:09:24.223Z,12.53
2023-01-30T21:11:55.369Z,12.13
2023-01-30T21:14:26.848Z,12.13
2023-01-30T21:16:55.675Z,15.53
2023-01-30T21:19:24.713Z,10.27
2023-01-30T21:21:55.344Z,14.93
2023-01-30T21:24:27.394Z,14.03
2023-01-30T21:26:57.813Z,14.73
2023-01-30T21:29:28.867Z,15.43
2023-01-30T21:31:59.025Z,12.27
2023-01-30T21:34:27.582Z,13.40
2023-01-30T21:37:13.415Z,12.13
2023-01-30T21:40:00.070Z,15.93
2023-01-30T21:42:47.355Z,12.13
2023-01-30T21:45:16.495Z,11.57
2023-01-30T21:47:48.449Z,12.53
2023-01-30T21:50:17.785Z,12.17
2023-01-30T21:52:46.474Z,13.10
2023-01-30T21:55:15.337Z,14.23
2023-01-30T21:57:45.293Z,12.03
2023-01-30T22:00:15.612Z,11.93
2023-01-30T22:02:44.168Z,13.03
2023-01-30T22:05:12.599Z,11.73
2023-01-30T22:07:40.892Z,15.37
2023-01-30T22:10:10.492Z,16.70
2023-01-30T22:12:40.213Z,11.97
2023-01-30T22:15:11.581Z,14.83
2023-01-30T22:17:40.552Z,11.93
2023-01-30T22:20:11.002Z,14.60
2023-01-30T22:22:39.896Z,12.40
2023-01-30T22:25:10.106Z,10.07
2023-01-30T22:27:38.498Z,13.33
2023-01-30T22:30:09.941Z,14.47
2023-01-30T22:32:38.441Z,11.87
2023-01-30T22:35:08.444Z,11.93
2023-01-30T22:37:37.337Z,14.07
2023-01-30T22:40:07.124Z,11.60
2023-01-30T22:42:36.003Z,13.97
2023-01-30T22:45:05.181Z,10.73
2023-01-30T22:47:38.653Z,16.03
2023-01-30T22:50:08.075Z,16.03
2023-01-30T22:52:39.717Z,18.83
2023-01-30T22:55:12.846Z,15.57
2023-01-30T22:57:41.127Z,13.27
2023-01-30T23:00:11.997Z,14.00
2023-01-30T23:02:42.125Z,21.40
2023-01-30T23:05:11.488Z,13.13
2023-01-30T23:07:40.045Z,17.20
2023-01-30T23:10:10.522Z,14.77
2023-01-30T23:12:56.137Z,14.83
2023-01-30T23:15:24.419Z,12.60
2023-01-30T23:18:11.553Z,12.10
2023-01-30T23:20:40.269Z,11.43
2023-01-30T23:23:08.636Z,15.03
2023-01-30T23:25:41.997Z,12.17
2023-01-30T23:28:10.693Z,14.50
2023-01-30T23:30:40.215Z,13.30
2023-01-30T23:33:10.073Z,13.10
2023-01-30T23:35:38.889Z,15.37
2023-01-30T23:38:24.124Z,14.93
2023-01-30T23:40:52.406Z,12.93
2023-01-30T23:43:21.512Z,11.77
2023-01-30T23:45:53.922Z,14.97
2023-01-30T23:48:23.512Z,17.27
2023-01-30T23:50:51.834Z,14.03
2023-01-30T23:53:20.164Z,12.67
2023-01-30T23:55:52.706Z,15.27
2023-01-30T23:58:21.164Z,16.77
